createdAt,value
2017-12-31T00:00:17.865Z,87.75
2017-12-31T00:01:30.136Z,87.94
2017-12-31T00:02:41.031Z,87.94
2017-12-31T00:03:51.816Z,88.04
2017-12-31T00:05:02.808Z,87.75
2017-12-31T00:06:14.644Z,88.13
2017-12-31T00:07:44.768Z,87.85
2017-12-31T00:14:32.104Z,87.37
2017-12-31T00:16:21.383Z,87.56
2017-12-31T00:19:51.094Z,86.61
2017-12-31T00:21:48.043Z,87.08
2017-12-31T00:22:58.229Z,86.61
2017-12-31T00:24:08.399Z,86.9
2017-12-31T00:25:18.529Z,86.7
2017-12-31T00:26:29.912Z,87.08
2017-12-31T00:27:40.886Z,86.8
2017-12-31T00:28:51.281Z,86.7
2017-12-31T00:30:03.509Z,86.9
2017-12-31T00:31:13.812Z,87.56
2017-12-31T00:32:23.939Z,87.18
2017-12-31T00:33:34.102Z,87.37
2017-12-31T00:34:44.233Z,87.37
2017-12-31T00:35:54.407Z,87.27
2017-12-31T00:37:05.619Z,87.27
2017-12-31T00:38:15.870Z,87.56
2017-12-31T00:39:25.776Z,87.56
2017-12-31T00:40:35.657Z,88.04
2017-12-31T00:41:45.794Z,88.04
2017-12-31T00:42:55.938Z,87.75
2017-12-31T00:44:05.949Z,87.56
2017-12-31T00:45:16.181Z,87.94
2017-12-31T00:46:26.392Z,88.13
2017-12-31T00:47:36.014Z,87.85
2017-12-31T00:48:46.300Z,88.7
2017-12-31T00:49:56.436Z,88.51
2017-12-31T00:51:06.558Z,88.23
2017-12-31T00:52:16.686Z,88.04
2017-12-31T00:53:26.797Z,87.85
2017-12-31T00:54:36.943Z,88.23
2017-12-31T00:55:47.154Z,88.23
2017-12-31T00:56:57.016Z,88.23
2017-12-31T00:58:07.170Z,88.32
2017-12-31T00:59:17.045Z,88.51
2017-12-31T01:00:26.932Z,88.51
2017-12-31T01:01:37.071Z,88.23
2017-12-31T01:02:47.180Z,88.51
2017-12-31T01:03:57.301Z,88.32
2017-12-31T01:05:07.502Z,88.6
2017-12-31T01:06:17.262Z,88.6
2017-12-31T01:07:27.455Z,89.08
2017-12-31T01:08:38.559Z,88.89
2017-12-31T01:09:48.974Z,88.79
2017-12-31T01:10:59.099Z,89.08
2017-12-31T01:12:09.302Z,89.08
2017-12-31T01:13:19.561Z,88.89
2017-12-31T01:14:29.842Z,89.08
2017-12-31T01:15:40.008Z,88.7
2017-12-31T01:16:50.614Z,89.18
2017-12-31T01:18:00.826Z,89.08
2017-12-31T01:19:11.037Z,89.47
2017-12-31T01:20:21.157Z,89.37
2017-12-31T01:21:31.290Z,89.27
2017-12-31T01:22:41.436Z,89.47
2017-12-31T01:23:51.603Z,89.94
2017-12-31T01:25:01.819Z,89.75
2017-12-31T01:26:12.051Z,89.75
2017-12-31T01:27:22.240Z,90.03
2017-12-31T01:28:32.449Z,89.65
2017-12-31T01:29:42.693Z,89.94
2017-12-31T01:30:52.835Z,90.32
2017-12-31T01:32:03.049Z,89.94
2017-12-31T01:33:13.228Z,89.94
2017-12-31T01:34:23.531Z,90.22
2017-12-31T01:35:33.388Z,89.89
2017-12-31T01:36:43.553Z,90.13
2017-12-31T01:37:53.688Z,90.61
2017-12-31T01:39:03.205Z,90.8
2017-12-31T01:40:13.323Z,90.89
2017-12-31T01:41:23.621Z,90.75
2017-12-31T01:42:33.782Z,90.56
2017-12-31T01:43:43.939Z,90.75
2017-12-31T01:44:54.072Z,90.94
2017-12-31T01:46:04.261Z,90.75
2017-12-31T01:47:14.481Z,90.75
2017-12-31T01:48:24.689Z,90.94
2017-12-31T01:49:34.880Z,90.37
2017-12-31T01:50:44.795Z,90.56
2017-12-31T01:51:54.689Z,90.56
2017-12-31T01:53:04.794Z,90.66
2017-12-31T01:54:14.915Z,90.56
2017-12-31T01:55:25.152Z,90.75
2017-12-31T01:56:35.363Z,90.75
2017-12-31T01:57:45.525Z,90.08
2017-12-31T01:58:55.380Z,90.28
2017-12-31T02:00:05.571Z,90.08
2017-12-31T02:01:15.807Z,90.18
2017-12-31T02:02:25.968Z,90.18
2017-12-31T02:03:36.247Z,89.42
2017-12-31T02:04:46.093Z,89.89
2017-12-31T02:05:56.236Z,89.61
2017-12-31T02:07:06.342Z,89.14
2017-12-31T02:08:16.526Z,89.14
2017-12-31T02:09:26.513Z,89.42
2017-12-31T02:10:36.633Z,88.85
2017-12-31T02:11:46.749Z,88.56
2017-12-31T02:12:56.936Z,87.99
2017-12-31T02:14:07.179Z,88.18
2017-12-31T02:15:17.367Z,87.99
2017-12-31T02:16:27.540Z,87.8
2017-12-31T02:17:37.703Z,88.18
2017-12-31T02:18:47.825Z,88.09
2017-12-31T02:19:57.956Z,87.9
2017-12-31T02:21:08.070Z,87.71
2017-12-31T02:22:18.186Z,87.32
2017-12-31T02:23:28.322Z,87.23
2017-12-31T02:24:38.453Z,87.61
2017-12-31T02:25:48.630Z,87.42
2017-12-31T02:26:58.792Z,87.42
2017-12-31T02:28:08.920Z,87.9
2017-12-31T02:29:19.040Z,87.32
2017-12-31T02:30:29.267Z,87.52
2017-12-31T02:31:39.383Z,88.09
2017-12-31T02:32:49.571Z,87.71
2017-12-31T02:33:59.520Z,88.09
2017-12-31T02:35:09.654Z,87.32
2017-12-31T02:36:19.803Z,87.71
2017-12-31T02:37:29.941Z,87.8
2017-12-31T02:38:39.709Z,87.9
2017-12-31T02:39:49.604Z,87.9
2017-12-31T02:40:59.473Z,87.9
2017-12-31T02:42:09.620Z,87.8
2017-12-31T02:43:19.774Z,87.99
2017-12-31T02:44:29.949Z,87.8
2017-12-31T02:45:40.059Z,87.8
2017-12-31T02:46:50.161Z,87.71
2017-12-31T02:48:00.029Z,87.04
2017-12-31T02:49:10.161Z,87.32
2017-12-31T02:50:19.780Z,87.42
2017-12-31T02:51:29.917Z,87.32
2017-12-31T02:52:40.046Z,87.04
2017-12-31T02:53:50.139Z,87.42
2017-12-31T02:55:00.272Z,87.42
2017-12-31T02:56:10.427Z,87.32
2017-12-31T02:57:20.574Z,87.32
2017-12-31T02:58:30.726Z,87.23
2017-12-31T02:59:40.631Z,87.04
2017-12-31T03:00:50.770Z,87.32
2017-12-31T03:02:00.893Z,87.42
2017-12-31T03:03:11.086Z,87.61
2017-12-31T03:04:21.336Z,87.13
2017-12-31T03:05:31.493Z,86.94
2017-12-31T03:06:41.612Z,86.85
2017-12-31T03:07:51.742Z,86.85
2017-12-31T03:09:01.517Z,86.94
2017-12-31T03:10:11.632Z,86.85
2017-12-31T03:11:21.754Z,87.23
2017-12-31T03:12:31.846Z,87.04
2017-12-31T03:13:41.797Z,86.94
2017-12-31T03:14:51.944Z,87.04
2017-12-31T03:16:03.049Z,87.13
2017-12-31T03:17:13.242Z,86.94
2017-12-31T03:18:23.745Z,87.04
2017-12-31T03:19:33.857Z,86.85
2017-12-31T03:20:43.960Z,86.94
2017-12-31T03:21:54.208Z,87.04
2017-12-31T03:23:04.476Z,86.85
2017-12-31T03:24:14.664Z,86.76
2017-12-31T03:25:24.887Z,86.94
2017-12-31T03:26:35.057Z,86.85
2017-12-31T03:27:45.202Z,86.94
2017-12-31T03:28:55.424Z,86.85
2017-12-31T03:30:05.310Z,86.85
2017-12-31T03:31:15.474Z,87.23
2017-12-31T03:32:25.651Z,86.94
2017-12-31T03:33:35.761Z,86.85
2017-12-31T03:34:45.887Z,86.66
2017-12-31T03:35:56.001Z,86.66
2017-12-31T03:37:06.172Z,86.94
2017-12-31T03:38:17.015Z,86.57
2017-12-31T03:39:27.120Z,86.66
2017-12-31T03:40:37.254Z,87.13
2017-12-31T03:41:47.465Z,86.85
2017-12-31T03:42:57.345Z,87.13
2017-12-31T03:44:07.486Z,86.85
2017-12-31T03:45:17.335Z,87.04
2017-12-31T03:46:27.191Z,87.42
2017-12-31T03:47:37.051Z,87.23
2017-12-31T03:48:47.166Z,87.13
2017-12-31T03:49:57.269Z,87.61
2017-12-31T03:51:07.380Z,87.42
2017-12-31T03:52:17.586Z,87.32
2017-12-31T03:53:27.751Z,87.42
2017-12-31T03:54:37.999Z,87.13
2017-12-31T03:55:48.113Z,87.32
2017-12-31T03:56:58.263Z,87.52
2017-12-31T03:58:08.265Z,87.32
2017-12-31T03:59:18.535Z,87.71
2017-12-31T04:00:28.713Z,87.52
2017-12-31T04:01:38.870Z,87.99
2017-12-31T04:02:49.061Z,87.99
2017-12-31T04:03:59.155Z,87.9
2017-12-31T04:05:09.343Z,88.18
2017-12-31T04:06:19.454Z,87.99
2017-12-31T04:07:29.381Z,87.8
2017-12-31T04:08:39.489Z,87.71
2017-12-31T04:09:49.613Z,87.8
2017-12-31T04:10:59.711Z,87.9
2017-12-31T04:12:09.929Z,88.09
2017-12-31T04:13:20.148Z,88.09
2017-12-31T04:14:30.289Z,87.99
2017-12-31T04:15:40.510Z,87.99
2017-12-31T04:16:51.153Z,88.04
2017-12-31T04:18:01.268Z,88.42
2017-12-31T04:19:11.400Z,88.42
2017-12-31T04:20:21.516Z,88.33
2017-12-31T04:21:31.670Z,88.37
2017-12-31T04:22:41.890Z,88.33
2017-12-31T04:23:52.998Z,88.37
2017-12-31T04:25:03.138Z,88.46
2017-12-31T04:26:13.308Z,88.04
2017-12-31T04:27:23.447Z,88.04
2017-12-31T04:28:33.347Z,88.33
2017-12-31T04:29:43.269Z,88.42
2017-12-31T04:30:55.115Z,88.13
2017-12-31T04:32:05.706Z,87.66
2017-12-31T04:33:15.571Z,87.85
2017-12-31T04:34:25.685Z,87.95
2017-12-31T04:35:35.538Z,88.13
2017-12-31T04:36:45.383Z,88.23
2017-12-31T04:37:54.747Z,88.04
2017-12-31T04:39:04.596Z,88.13
2017-12-31T04:40:15.419Z,88.33
2017-12-31T04:41:26.531Z,87.95
2017-12-31T04:42:36.407Z,88.33
2017-12-31T04:43:46.518Z,88.13
2017-12-31T04:44:56.571Z,88.04
2017-12-31T04:46:07.827Z,88.04
2017-12-31T04:47:17.421Z,88.52
2017-12-31T04:48:28.579Z,88.42
2017-12-31T04:49:39.151Z,88.33
2017-12-31T04:50:50.002Z,88.52
2017-12-31T04:51:59.499Z,88.42
2017-12-31T04:53:10.091Z,88.23
2017-12-31T04:54:21.170Z,88.33
2017-12-31T04:55:30.524Z,88.33
2017-12-31T04:56:40.210Z,88.13
2017-12-31T04:57:49.192Z,88.23
2017-12-31T04:58:58.443Z,88.52
2017-12-31T05:00:08.773Z,88.33
2017-12-31T05:01:17.855Z,88.52
2017-12-31T05:02:26.583Z,88.8
2017-12-31T05:03:36.908Z,88.8
2017-12-31T05:04:47.527Z,88.8
2017-12-31T05:05:58.108Z,88.9
2017-12-31T05:07:06.834Z,89.09
2017-12-31T05:08:16.643Z,89
2017-12-31T05:09:26.897Z,89.18
2017-12-31T05:10:36.965Z,89.23
2017-12-31T05:11:46.599Z,88.94
2017-12-31T05:12:56.055Z,88.94
2017-12-31T05:14:06.639Z,89.18
2017-12-31T05:15:16.987Z,89.04
2017-12-31T05:16:27.896Z,88.9
2017-12-31T05:17:37.242Z,89.04
2017-12-31T05:18:46.494Z,88.94
2017-12-31T05:19:55.953Z,88.75
2017-12-31T05:21:06.014Z,88.75
2017-12-31T05:22:15.272Z,88.94
2017-12-31T05:23:25.862Z,88.94
2017-12-31T05:24:36.257Z,89.14
2017-12-31T05:25:46.129Z,89.23
2017-12-31T05:26:56.700Z,89.23
2017-12-31T05:28:05.680Z,89.32
2017-12-31T05:29:16.536Z,89.32
2017-12-31T05:30:26.782Z,89.32
2017-12-31T05:31:36.189Z,89.14
2017-12-31T05:32:46.249Z,89.32
2017-12-31T05:33:55.348Z,89.14
2017-12-31T05:35:06.903Z,89.23
2017-12-31T05:36:16.993Z,89.37
2017-12-31T05:37:28.559Z,89.51
2017-12-31T05:38:38.872Z,89.23
2017-12-31T05:39:49.233Z,89.14
2017-12-31T05:40:59.771Z,89.42
2017-12-31T05:42:09.921Z,89.61
2017-12-31T05:43:19.986Z,89.99
2017-12-31T05:44:30.307Z,89.99
2017-12-31T05:45:40.358Z,89.89
2017-12-31T05:46:51.906Z,89.89
2017-12-31T05:48:01.258Z,89.8
2017-12-31T05:49:11.581Z,89.89
2017-12-31T05:50:23.145Z,89.61
2017-12-31T05:51:33.200Z,89.89
2017-12-31T05:52:42.184Z,90.18
2017-12-31T05:53:52.486Z,90.18
2017-12-31T05:55:02.545Z,89.89
2017-12-31T05:56:13.133Z,89.89
2017-12-31T05:57:23.515Z,89.7
2017-12-31T05:58:34.336Z,90.37
2017-12-31T05:59:44.404Z,90.08
2017-12-31T06:00:54.753Z,89.8
2017-12-31T06:02:04.202Z,89.7
2017-12-31T06:03:15.855Z,90.08
2017-12-31T06:04:25.913Z,90.37
2017-12-31T06:05:35.997Z,90.37
2017-12-31T06:06:46.068Z,90.56
2017-12-31T06:07:58.152Z,90.75
2017-12-31T06:09:09.966Z,90.84
2017-12-31T06:10:20.534Z,90.66
2017-12-31T06:11:32.084Z,91.32
2017-12-31T06:12:41.169Z,90.94
2017-12-31T06:13:49.922Z,90.75
2017-12-31T06:15:00.530Z,91.89
2017-12-31T06:16:11.123Z,91.61
2017-12-31T06:17:21.434Z,91.51
2017-12-31T06:18:30.158Z,91.7
2017-12-31T06:19:40.220Z,91.51
2017-12-31T06:20:50.548Z,91.61
2017-12-31T06:22:00.599Z,92.08
2017-12-31T06:23:10.661Z,91.8
2017-12-31T06:24:21.104Z,92.18
2017-12-31T06:25:32.267Z,92.18
2017-12-31T06:26:42.582Z,92.36
2017-12-31T06:27:52.629Z,92.65
2017-12-31T06:29:03.920Z,92.65
2017-12-31T06:30:14.288Z,92.46
2017-12-31T06:31:24.341Z,92.56
2017-12-31T06:32:33.316Z,93.13
2017-12-31T06:33:43.648Z,93.41
2017-12-31T06:34:52.986Z,93.23
2017-12-31T06:36:03.065Z,93.13
2017-12-31T06:37:12.414Z,93.04
2017-12-31T06:38:22.746Z,93.32
2017-12-31T06:39:33.111Z,93.13
2017-12-31T06:40:43.445Z,93.04
2017-12-31T06:41:53.508Z,93.6
2017-12-31T06:43:02.869Z,93.32
2017-12-31T06:44:12.959Z,93.23
2017-12-31T06:45:23.601Z,93.32
2017-12-31T06:46:34.184Z,93.79
2017-12-31T06:47:44.500Z,94.27
2017-12-31T06:48:54.554Z,94.08
2017-12-31T06:50:03.642Z,94.27
2017-12-31T06:51:16.441Z,93.79
2017-12-31T06:52:27.038Z,94.37
2017-12-31T06:53:36.171Z,94.37
2017-12-31T06:54:47.469Z,94.65
2017-12-31T06:55:57.547Z,95.03
2017-12-31T06:57:08.164Z,94.84
2017-12-31T06:58:18.226Z,94.84
2017-12-31T06:59:26.958Z,95.12
2017-12-31T07:00:38.266Z,95.12
2017-12-31T07:01:47.697Z,94.74
2017-12-31T07:02:57.767Z,94.84
2017-12-31T07:04:06.851Z,95.12
2017-12-31T07:05:17.160Z,95.22
2017-12-31T07:06:26.289Z,95.22
2017-12-31T07:07:36.357Z,95.03
2017-12-31T07:08:46.671Z,95.12
2017-12-31T07:09:56.731Z,95.89
2017-12-31T07:11:08.428Z,95.7
2017-12-31T07:12:19.022Z,95.51
2017-12-31T07:13:30.298Z,95.79
2017-12-31T07:14:40.358Z,96.08
2017-12-31T07:15:50.678Z,95.7
2017-12-31T07:17:01.965Z,95.98
2017-12-31T07:18:12.539Z,95.79
2017-12-31T07:19:22.612Z,95.7
2017-12-31T07:20:31.618Z,96.74
2017-12-31T07:21:41.685Z,96.36
2017-12-31T07:22:53.238Z,96.17
2017-12-31T07:24:02.754Z,95.89
2017-12-31T07:25:13.067Z,95.89
2017-12-31T07:26:23.396Z,96.84
2017-12-31T07:27:33.089Z,96.26
2017-12-31T07:28:43.398Z,96.36
2017-12-31T07:29:52.638Z,96.36
2017-12-31T07:31:02.258Z,96.46
2017-12-31T07:32:11.607Z,97.03
2017-12-31T07:33:20.331Z,97.03
2017-12-31T07:34:30.565Z,96.94
2017-12-31T07:35:39.518Z,96.84
2017-12-31T07:36:49.580Z,97.03
2017-12-31T07:37:58.935Z,97.13
2017-12-31T07:39:08.990Z,97.13
2017-12-31T07:40:18.744Z,96.94
2017-12-31T07:41:29.318Z,97.5
2017-12-31T07:42:41.200Z,97.6
2017-12-31T07:43:52.481Z,97.88
2017-12-31T07:45:02.530Z,97.69
2017-12-31T07:46:12.588Z,97.79
2017-12-31T07:47:23.194Z,97.88
2017-12-31T07:48:34.752Z,97.6
2017-12-31T07:49:44.405Z,97.6
2017-12-31T07:50:53.509Z,97.88
2017-12-31T07:52:03.921Z,97.79
2017-12-31T07:53:14.067Z,98.65
2017-12-31T07:54:23.772Z,98.17
2017-12-31T07:55:34.093Z,98.46
2017-12-31T07:56:44.508Z,98.27
2017-12-31T07:57:54.854Z,98.08
2017-12-31T07:59:03.950Z,98.65
2017-12-31T08:00:14.530Z,98.46
2017-12-31T08:01:25.110Z,98.55
2017-12-31T08:02:35.737Z,98.46
2017-12-31T08:03:46.101Z,98.46
2017-12-31T08:04:56.436Z,98.27
2017-12-31T08:06:06.758Z,99.02
2017-12-31T08:07:16.828Z,98.83
2017-12-31T08:08:27.418Z,98.93
2017-12-31T08:09:36.688Z,99.02
2017-12-31T08:10:46.748Z,99.12
2017-12-31T08:11:55.846Z,99.02
2017-12-31T08:13:05.054Z,98.46
2017-12-31T08:14:15.225Z,99.12
2017-12-31T08:15:25.297Z,98.74
2017-12-31T08:16:35.691Z,98.93
2017-12-31T08:17:45.906Z,98.83
2017-12-31T08:18:56.916Z,98.93
2017-12-31T08:20:07.830Z,98.65
2017-12-31T08:21:18.706Z,98.83
2017-12-31T08:22:28.759Z,98.93
2017-12-31T08:23:38.820Z,98.65
2017-12-31T08:24:50.189Z,99.02
2017-12-31T08:26:00.662Z,98.65
2017-12-31T08:27:10.054Z,98.65
2017-12-31T08:28:21.706Z,98.93
2017-12-31T08:29:30.704Z,98.83
2017-12-31T08:30:39.793Z,99.12
2017-12-31T08:31:49.082Z,99.27
2017-12-31T08:32:58.770Z,99.31
2017-12-31T08:34:09.362Z,99.55
2017-12-31T08:35:19.970Z,99.31
2017-12-31T08:36:31.836Z,99.5
2017-12-31T08:37:42.443Z,99.31
2017-12-31T08:38:54.150Z,99.31
2017-12-31T08:40:04.776Z,99.41
2017-12-31T08:41:15.189Z,99.12
2017-12-31T08:42:24.560Z,99.12
2017-12-31T08:43:34.886Z,99.65
2017-12-31T08:44:44.847Z,99.08
2017-12-31T08:45:53.835Z,99.02
2017-12-31T08:47:04.485Z,99.99
2017-12-31T08:48:14.812Z,99.99
2017-12-31T08:49:24.880Z,99.98
2017-12-31T08:50:35.483Z,99.88
2017-12-31T08:51:47.304Z,99.79
2017-12-31T08:52:58.858Z,99.93
2017-12-31T08:54:08.489Z,99.79
2017-12-31T08:55:17.751Z,99.74
2017-12-31T08:56:28.369Z,99.79
2017-12-31T08:57:38.678Z,99.99
2017-12-31T08:58:48.742Z,99.99
2017-12-31T08:59:59.054Z,99.93
2017-12-31T09:01:09.136Z,99.99
2017-12-31T09:02:19.996Z,99.99
2017-12-31T09:03:30.422Z,99.99
2017-12-31T09:04:41.717Z,99.99
2017-12-31T09:05:52.312Z,99.99
2017-12-31T09:07:02.647Z,99.99
2017-12-31T09:08:13.000Z,99.99
2017-12-31T09:09:23.061Z,99.99
2017-12-31T09:10:34.369Z,99.99
2017-12-31T09:11:44.424Z,99.99
2017-12-31T09:12:54.759Z,99.99
2017-12-31T09:14:05.383Z,99.99
2017-12-31T09:15:15.980Z,99.99
2017-12-31T09:16:26.054Z,99.99
2017-12-31T09:17:36.885Z,99.99
2017-12-31T09:18:46.950Z,99.99
2017-12-31T09:19:58.259Z,99.99
2017-12-31T09:21:08.882Z,99.99
2017-12-31T09:22:18.590Z,99.99
2017-12-31T09:23:27.598Z,99.99
2017-12-31T09:24:39.425Z,99.99
2017-12-31T09:25:48.536Z,99.99
2017-12-31T09:27:32.536Z,99.99
2017-12-31T09:28:44.466Z,99.99
2017-12-31T09:29:54.909Z,99.99
2017-12-31T09:31:03.925Z,99.99
2017-12-31T09:32:14.082Z,99.99
2017-12-31T09:33:24.144Z,99.99
2017-12-31T09:34:33.777Z,99.99
2017-12-31T09:35:44.444Z,99.99
2017-12-31T09:36:55.035Z,99.99
2017-12-31T09:38:05.122Z,99.99
2017-12-31T09:39:13.869Z,99.99
2017-12-31T09:40:24.716Z,99.99
2017-12-31T09:41:34.826Z,99.99
2017-12-31T09:42:44.913Z,99.99
2017-12-31T09:43:56.226Z,99.99
2017-12-31T09:45:05.227Z,99.99
2017-12-31T09:46:16.526Z,99.99
2017-12-31T09:47:28.380Z,99.99
2017-12-31T09:48:38.993Z,99.99
2017-12-31T09:49:48.105Z,99.99
2017-12-31T09:50:58.471Z,99.99
2017-12-31T09:52:08.816Z,99.99
2017-12-31T09:53:19.141Z,99.99
2017-12-31T09:54:30.706Z,99.99
2017-12-31T09:55:41.304Z,99.99
2017-12-31T09:56:51.380Z,99.99
2017-12-31T09:58:00.519Z,99.99
2017-12-31T09:59:11.141Z,99.99
2017-12-31T10:00:20.142Z,99.99
2017-12-31T10:01:29.577Z,99.99
2017-12-31T10:02:39.660Z,99.99
2017-12-31T10:03:48.683Z,99.99
2017-12-31T10:04:57.779Z,99.99
2017-12-31T10:06:06.919Z,99.99
2017-12-31T10:07:18.256Z,99.99
2017-12-31T10:08:29.691Z,99.99
2017-12-31T10:09:41.525Z,99.99
2017-12-31T10:10:51.921Z,99.99
2017-12-31T10:12:02.674Z,99.99
2017-12-31T10:13:13.255Z,99.99
2017-12-31T10:14:25.201Z,99.99
2017-12-31T10:15:34.597Z,99.99
2017-12-31T10:16:45.256Z,99.99
2017-12-31T10:17:57.079Z,99.99
2017-12-31T10:19:07.453Z,99.99
2017-12-31T10:20:18.107Z,99.99
2017-12-31T10:21:28.996Z,99.99
2017-12-31T10:22:39.607Z,99.99
2017-12-31T10:23:48.741Z,99.99
2017-12-31T10:24:58.031Z,99.99
2017-12-31T10:26:08.896Z,99.99
2017-12-31T10:27:19.247Z,99.99
2017-12-31T10:28:29.608Z,99.99
2017-12-31T10:29:40.217Z,99.99
2017-12-31T10:30:51.464Z,99.99
2017-12-31T10:32:01.365Z,99.99
2017-12-31T10:33:12.654Z,99.99
2017-12-31T10:34:22.754Z,99.99
2017-12-31T10:35:34.415Z,99.99
2017-12-31T10:36:46.132Z,99.99
2017-12-31T10:37:56.751Z,99.99
2017-12-31T10:39:07.082Z,99.99
2017-12-31T10:40:16.461Z,99.99
2017-12-31T10:41:27.766Z,99.99
2017-12-31T10:42:38.155Z,99.99
2017-12-31T10:43:51.261Z,99.99
2017-12-31T10:45:01.325Z,99.99
2017-12-31T10:46:10.593Z,99.99
2017-12-31T10:47:19.700Z,99.99
2017-12-31T10:48:28.831Z,99.99
2017-12-31T10:49:38.901Z,99.99
2017-12-31T10:50:49.520Z,99.99
2017-12-31T10:51:59.599Z,99.99
2017-12-31T10:53:11.439Z,99.99
2017-12-31T10:54:22.111Z,99.99
2017-12-31T10:55:34.089Z,99.99
2017-12-31T10:56:45.401Z,99.99
2017-12-31T10:57:56.970Z,99.99
2017-12-31T10:59:06.589Z,99.99
2017-12-31T11:00:15.699Z,99.99
2017-12-31T11:01:26.327Z,99.99
2017-12-31T11:02:36.718Z,99.99
2017-12-31T11:03:46.153Z,99.99
2017-12-31T11:04:57.904Z,99.99
2017-12-31T11:06:10.066Z,99.99
2017-12-31T11:07:21.488Z,99.99
2017-12-31T11:08:32.415Z,99.99
2017-12-31T11:09:44.034Z,99.99
2017-12-31T11:10:53.353Z,99.99
2017-12-31T11:12:03.423Z,99.99
2017-12-31T11:13:13.495Z,99.99
2017-12-31T11:14:22.526Z,99.99
2017-12-31T11:15:33.167Z,99.99
2017-12-31T11:16:44.481Z,99.99
2017-12-31T11:17:56.143Z,99.99
2017-12-31T11:19:06.317Z,99.99
2017-12-31T11:20:17.648Z,99.99
2017-12-31T11:21:26.663Z,99.99
2017-12-31T11:22:36.748Z,99.99
2017-12-31T11:23:47.075Z,99.99
2017-12-31T11:24:57.477Z,99.99
2017-12-31T11:26:07.827Z,99.99
2017-12-31T11:27:18.212Z,99.99
2017-12-31T11:28:28.793Z,99.99
2017-12-31T11:29:39.123Z,99.99
2017-12-31T11:30:50.724Z,99.99
2017-12-31T11:32:02.560Z,99.99
2017-12-31T11:33:13.467Z,99.99
2017-12-31T11:34:25.043Z,99.99
2017-12-31T11:35:34.317Z,99.99
2017-12-31T11:36:46.150Z,99.99
2017-12-31T11:37:57.777Z,99.99
2017-12-31T11:39:06.520Z,99.99
2017-12-31T11:40:17.135Z,99.99
2017-12-31T11:41:27.229Z,99.99
2017-12-31T11:42:38.822Z,99.99
2017-12-31T11:43:50.224Z,99.99
2017-12-31T11:45:00.824Z,99.9
2017-12-31T11:46:11.490Z,99.8
2017-12-31T11:47:21.566Z,99.71
2017-12-31T11:48:30.843Z,99.52
2017-12-31T11:49:41.491Z,99.32
2017-12-31T11:50:51.568Z,98.94
2017-12-31T11:52:01.915Z,99.13
2017-12-31T11:53:12.301Z,99.32
2017-12-31T11:54:21.716Z,99.42
2017-12-31T11:55:32.403Z,98.75
2017-12-31T11:56:43.995Z,98.56
2017-12-31T11:57:53.395Z,98.66
2017-12-31T11:59:02.305Z,98.37
2017-12-31T12:00:12.977Z,97.89
2017-12-31T12:01:23.601Z,98.08
2017-12-31T12:02:34.354Z,97.8
2017-12-31T12:03:44.993Z,97.47
2017-12-31T12:04:55.317Z,97.18
2017-12-31T12:06:05.929Z,97.27
2017-12-31T12:07:16.652Z,96.89
2017-12-31T12:08:25.757Z,95.84
2017-12-31T12:09:35.829Z,95.94
2017-12-31T12:10:44.871Z,96.03
2017-12-31T12:11:54.542Z,95.08
2017-12-31T12:13:03.543Z,95.94
2017-12-31T12:14:13.630Z,95.65
2017-12-31T12:15:26.213Z,95.75
2017-12-31T12:16:35.987Z,95.27
2017-12-31T12:17:45.734Z,94.7
2017-12-31T12:18:56.186Z,94.41
2017-12-31T12:20:05.511Z,93.74
2017-12-31T12:21:15.896Z,93.36
2017-12-31T12:22:26.566Z,93.46
2017-12-31T12:23:37.154Z,94.27
2017-12-31T12:24:46.276Z,93.31
2017-12-31T12:25:56.906Z,93.21
2017-12-31T12:27:06.527Z,93.7
2017-12-31T12:28:17.142Z,93.26
2017-12-31T12:29:28.711Z,93.41
2017-12-31T12:30:39.346Z,93.12
2017-12-31T12:31:49.428Z,92.93
2017-12-31T12:32:59.785Z,92.74
2017-12-31T12:34:12.743Z,91.78
2017-12-31T12:35:23.636Z,92.36
2017-12-31T12:36:35.223Z,92.16
2017-12-31T12:37:45.554Z,92.26
2017-12-31T12:38:55.626Z,92.45
2017-12-31T12:40:04.362Z,92.36
2017-12-31T12:41:14.727Z,91.69
2017-12-31T12:42:23.758Z,91.69
2017-12-31T12:43:35.085Z,91.21
2017-12-31T12:44:44.773Z,91.11
2017-12-31T12:45:57.332Z,91.88
2017-12-31T12:47:06.440Z,91.69
2017-12-31T12:48:16.796Z,91.55
2017-12-31T12:49:26.086Z,91.64
2017-12-31T12:50:37.782Z,91.5
2017-12-31T12:51:48.666Z,91.88
2017-12-31T12:52:59.177Z,91.02
2017-12-31T12:54:08.550Z,91.11
2017-12-31T12:55:19.192Z,90.97
2017-12-31T12:56:30.053Z,91.3
2017-12-31T12:57:40.066Z,90.73
2017-12-31T12:58:50.207Z,90.54
2017-12-31T12:59:59.551Z,90.83
2017-12-31T13:01:09.908Z,91.11
2017-12-31T13:02:20.547Z,90.64
2017-12-31T13:03:30.508Z,90.16
2017-12-31T13:04:39.886Z,91.02
2017-12-31T13:05:51.234Z,90.83
2017-12-31T13:07:01.312Z,90.73
2017-12-31T13:08:12.683Z,90.06
2017-12-31T13:09:23.046Z,89.78
2017-12-31T13:10:32.184Z,89.87
2017-12-31T13:11:42.766Z,89.11
2017-12-31T13:12:55.580Z,89.87
2017-12-31T13:14:06.177Z,89.11
2017-12-31T13:15:16.276Z,89.39
2017-12-31T13:16:27.564Z,89.39
2017-12-31T13:18:10.065Z,89.39
2017-12-31T13:19:20.127Z,89.11
2017-12-31T13:20:31.746Z,89.11
2017-12-31T13:21:43.049Z,88.25
2017-12-31T13:22:53.675Z,88.73
2017-12-31T13:24:05.594Z,88.82
2017-12-31T13:25:15.606Z,89.01
2017-12-31T13:26:25.000Z,88.15
2017-12-31T13:27:34.248Z,88.63
2017-12-31T13:28:44.611Z,88.25
2017-12-31T13:29:54.333Z,88.54
2017-12-31T13:31:04.485Z,88.54
2017-12-31T13:32:15.116Z,88.54
2017-12-31T13:33:26.722Z,88.63
2017-12-31T13:34:39.272Z,88.06
2017-12-31T13:35:49.903Z,87.77
2017-12-31T13:37:01.514Z,88.25
2017-12-31T13:38:12.946Z,88.25
2017-12-31T13:39:23.320Z,88.15
2017-12-31T13:40:36.154Z,88.15
2017-12-31T13:41:47.733Z,88.15
2017-12-31T13:42:58.366Z,88.15
2017-12-31T13:44:11.168Z,88.44
2017-12-31T13:45:22.499Z,88.34
2017-12-31T13:46:33.128Z,88.25
2017-12-31T13:47:43.475Z,88.44
2017-12-31T13:48:53.829Z,88.06
2017-12-31T13:50:05.686Z,88.06
2017-12-31T13:51:16.060Z,88.06
2017-12-31T13:52:28.627Z,87.96
2017-12-31T13:53:38.730Z,87.77
2017-12-31T13:54:49.251Z,87.87
2017-12-31T13:55:58.644Z,88.06
2017-12-31T13:57:08.731Z,87.87
2017-12-31T13:58:19.110Z,88.06
2017-12-31T13:59:29.484Z,87.77
2017-12-31T14:00:38.620Z,88.06
2017-12-31T14:01:47.650Z,88.15
2017-12-31T14:02:57.738Z,88.63
2017-12-31T14:04:07.984Z,87.77
2017-12-31T14:05:18.619Z,87.87
2017-12-31T14:06:27.711Z,88.06
2017-12-31T14:07:39.294Z,88.25
2017-12-31T14:08:50.207Z,87.87
2017-12-31T14:10:00.602Z,88.25
2017-12-31T14:11:10.711Z,87.68
2017-12-31T14:12:21.119Z,87.96
2017-12-31T14:13:33.986Z,88.15
2017-12-31T14:14:45.316Z,88.06
2017-12-31T14:15:55.794Z,88.06
2017-12-31T14:17:04.914Z,87.77
2017-12-31T14:18:15.324Z,88.15
2017-12-31T14:19:24.715Z,88.15
2017-12-31T14:20:36.317Z,88.15
2017-12-31T14:21:48.210Z,87.87
2017-12-31T14:22:59.521Z,88.06
2017-12-31T14:24:09.612Z,87.87
2017-12-31T14:25:21.291Z,88.15
2017-12-31T14:26:31.632Z,87.77
2017-12-31T14:27:44.165Z,88.15
2017-12-31T14:28:54.782Z,88.06
2017-12-31T14:30:03.791Z,87.96
2017-12-31T14:31:13.432Z,88.15
2017-12-31T14:32:23.766Z,87.77
2017-12-31T14:33:34.147Z,88.15
2017-12-31T14:34:44.051Z,88.15
2017-12-31T14:35:54.458Z,88.01
2017-12-31T14:37:05.122Z,88.34
2017-12-31T14:38:14.231Z,87.73
2017-12-31T14:39:23.658Z,88.01
2017-12-31T14:40:33.746Z,88.44
2017-12-31T14:41:44.093Z,88.01
2017-12-31T14:42:54.748Z,88.2
2017-12-31T14:44:05.107Z,87.82
2017-12-31T14:45:14.427Z,87.92
2017-12-31T14:46:25.157Z,88.01
2017-12-31T14:47:35.795Z,87.92
2017-12-31T14:48:46.174Z,88.2
2017-12-31T14:49:56.540Z,88.11
2017-12-31T14:51:07.181Z,88.15
2017-12-31T14:52:17.256Z,88.11
2017-12-31T14:53:27.750Z,88.01
2017-12-31T14:54:36.853Z,88.2
2017-12-31T14:55:48.215Z,87.82
2017-12-31T14:57:29.479Z,88.59
2017-12-31T14:58:40.115Z,88.11
2017-12-31T14:59:51.759Z,88.01
2017-12-31T15:01:02.391Z,87.82
2017-12-31T15:02:13.726Z,87.87
2017-12-31T15:03:23.135Z,87.92
2017-12-31T15:04:35.045Z,88.11
2017-12-31T15:05:46.666Z,88.11
2017-12-31T15:06:56.037Z,88.11
2017-12-31T15:08:05.423Z,88.01
2017-12-31T15:09:14.442Z,88.01
2017-12-31T15:10:24.729Z,88.01
2017-12-31T15:11:34.153Z,87.73
2017-12-31T15:12:45.985Z,87.92
2017-12-31T15:13:57.570Z,87.92
2017-12-31T15:15:09.432Z,88.4
2017-12-31T15:16:19.533Z,88.11
2017-12-31T15:17:30.197Z,87.92
2017-12-31T15:18:41.498Z,88.4